createdAt,value
2023-01-21T00:00:28.052Z,99.99
2023-01-21T00:01:21.190Z,99.99
2023-01-21T00:02:21.279Z,99.99
2023-01-21T00:03:21.178Z,99.99
2023-01-21T00:04:21.195Z,99.99
2023-01-21T00:05:21.169Z,99.99
2023-01-21T00:06:22.007Z,99.99
2023-01-21T00:07:21.154Z,99.79
2023-01-21T00:08:21.126Z,99.69
2023-01-21T00:09:21.128Z,99.27
2023-01-21T00:10:21.180Z,99.10
2023-01-21T00:11:25.088Z,99.00
2023-01-21T00:12:21.867Z,98.89
2023-01-21T00:13:21.467Z,99.10
2023-01-21T00:14:21.069Z,99.41
2023-01-21T00:15:21.762Z,99.52
2023-01-21T00:16:21.767Z,99.73
2023-01-21T00:17:21.047Z,99.52
2023-01-21T00:18:21.937Z,99.41
2023-01-21T00:19:21.242Z,99.41
2023-01-21T00:20:28.407Z,99.41
2023-01-21T00:21:20.986Z,99.21
2023-01-21T00:22:20.993Z,99.10
2023-01-21T00:23:20.993Z,99.21
2023-01-21T00:24:20.984Z,99.41
2023-01-21T00:25:20.945Z,99.41
2023-01-21T00:26:20.938Z,99.52
2023-01-21T00:27:21.887Z,99.73
2023-01-21T00:28:21.963Z,99.90
2023-01-21T00:29:21.482Z,99.90
2023-01-21T00:30:20.891Z,99.84
2023-01-21T00:31:20.970Z,99.73
2023-01-21T00:32:20.894Z,99.95
2023-01-21T00:33:20.857Z,99.95
2023-01-21T00:34:20.865Z,99.95
2023-01-21T00:35:20.847Z,99.84
2023-01-21T00:36:21.472Z,99.78
2023-01-21T00:37:20.848Z,99.99
2023-01-21T00:38:20.822Z,99.99
2023-01-21T00:39:20.821Z,99.99
2023-01-21T00:40:27.970Z,99.88
2023-01-21T00:41:20.796Z,99.88
2023-01-21T00:42:20.966Z,99.99
2023-01-21T00:43:20.781Z,99.99
2023-01-21T00:44:21.384Z,99.99
2023-01-21T00:45:23.396Z,99.99
2023-01-21T00:46:23.016Z,99.99
2023-01-21T00:47:20.733Z,99.99
2023-01-21T00:48:20.716Z,99.99
2023-01-21T00:49:20.692Z,99.99
2023-01-21T00:50:21.688Z,99.99
2023-01-21T00:51:20.723Z,99.99
2023-01-21T00:52:20.652Z,99.99
2023-01-21T00:53:20.668Z,99.99
2023-01-21T00:54:20.635Z,99.99
2023-01-21T00:55:20.639Z,99.99
2023-01-21T00:56:21.302Z,99.99
2023-01-21T00:57:20.633Z,99.99
2023-01-21T00:58:20.596Z,99.99
2023-01-21T00:59:20.624Z,99.99
2023-01-21T01:00:28.853Z,99.99
2023-01-21T01:01:22.524Z,99.99
2023-01-21T01:02:21.489Z,99.99
2023-01-21T01:03:22.564Z,99.99
2023-01-21T01:04:22.904Z,99.99
2023-01-21T01:05:20.544Z,99.99
2023-01-21T01:06:20.521Z,99.99
2023-01-21T01:07:20.524Z,99.99
2023-01-21T01:08:21.022Z,99.99
2023-01-21T01:09:20.484Z,99.99
2023-01-21T01:10:21.955Z,99.99
2023-01-21T01:11:20.547Z,99.99
2023-01-21T01:12:20.449Z,99.99
2023-01-21T01:13:20.467Z,99.99
2023-01-21T01:14:20.445Z,99.99
2023-01-21T01:15:20.462Z,99.99
2023-01-21T01:16:20.454Z,99.99
2023-01-21T01:17:20.420Z,99.99
2023-01-21T01:18:20.415Z,99.99
2023-01-21T01:19:20.378Z,99.99
2023-01-21T01:20:20.364Z,99.99
2023-01-21T01:21:21.901Z,99.99
2023-01-21T01:22:20.342Z,99.99
2023-01-21T01:23:20.366Z,99.99
2023-01-21T01:24:20.339Z,99.99
2023-01-21T01:25:20.325Z,99.99
2023-01-21T01:26:21.014Z,99.99
2023-01-21T01:27:21.451Z,99.99
2023-01-21T01:28:20.289Z,99.99
2023-01-21T01:29:20.299Z,99.99
2023-01-21T01:30:20.290Z,99.99
2023-01-21T01:31:20.349Z,99.99
2023-01-21T01:32:20.248Z,99.99
2023-01-21T01:33:20.233Z,99.99
2023-01-21T01:34:20.248Z,99.99
2023-01-21T01:35:20.216Z,99.99
2023-01-21T01:36:20.956Z,99.99
2023-01-21T01:37:20.184Z,99.99
2023-01-21T01:38:20.197Z,99.99
2023-01-21T01:39:21.025Z,99.99
2023-01-21T01:40:20.185Z,99.99
2023-01-21T01:41:20.168Z,99.99
2023-01-21T01:42:20.219Z,99.99
2023-01-21T01:43:20.170Z,99.99
2023-01-21T01:44:20.113Z,99.99
2023-01-21T01:45:20.123Z,99.99
2023-01-21T01:46:20.247Z,99.99
2023-01-21T01:47:20.913Z,99.99
2023-01-21T01:48:20.114Z,99.99
2023-01-21T01:49:20.068Z,99.99
2023-01-21T01:50:26.981Z,99.99
2023-01-21T01:51:20.077Z,99.99
2023-01-21T01:52:20.039Z,99.99
2023-01-21T01:53:20.032Z,99.99
2023-01-21T01:54:20.569Z,99.99
2023-01-21T01:55:19.996Z,99.99
2023-01-21T01:56:20.965Z,99.99
2023-01-21T01:57:20.882Z,99.99
2023-01-21T01:58:20.006Z,99.99
2023-01-21T01:59:19.974Z,99.99
2023-01-21T02:00:19.947Z,99.99
2023-01-21T02:01:19.972Z,99.99
2023-01-21T02:02:19.959Z,99.99
2023-01-21T02:03:19.906Z,99.99
2023-01-21T02:04:19.912Z,99.99
2023-01-21T02:05:20.600Z,99.99
2023-01-21T02:06:19.891Z,99.99
2023-01-21T02:07:20.859Z,99.99
2023-01-21T02:08:19.871Z,99.99
2023-01-21T02:09:19.872Z,99.99
2023-01-21T02:10:19.980Z,99.99
2023-01-21T02:11:19.846Z,99.99
2023-01-21T02:12:19.845Z,99.99
2023-01-21T02:13:20.498Z,99.99
2023-01-21T02:14:19.810Z,99.99
2023-01-21T02:15:20.377Z,99.99
2023-01-21T02:16:21.574Z,99.99
2023-01-21T02:17:19.773Z,99.99
2023-01-21T02:18:19.760Z,99.99
2023-01-21T02:19:19.761Z,99.99
2023-01-21T02:20:19.757Z,99.99
2023-01-21T02:21:19.747Z,99.99
2023-01-21T02:22:19.735Z,99.99
2023-01-21T02:23:19.707Z,99.99
2023-01-21T02:24:19.707Z,99.99
2023-01-21T02:25:20.566Z,99.99
2023-01-21T02:26:20.560Z,99.99
2023-01-21T02:27:24.906Z,99.99
2023-01-21T02:28:19.675Z,99.99
2023-01-21T02:29:19.667Z,99.99
2023-01-21T02:30:19.652Z,99.99
2023-01-21T02:31:19.758Z,99.99
2023-01-21T02:32:19.635Z,99.99
2023-01-21T02:33:20.585Z,99.99
2023-01-21T02:34:19.592Z,99.99
2023-01-21T02:35:20.577Z,99.99
2023-01-21T02:36:20.565Z,99.99
2023-01-21T02:37:20.368Z,99.99
2023-01-21T02:38:19.576Z,99.98
2023-01-21T02:39:19.559Z,99.76
2023-01-21T02:40:26.084Z,99.51
2023-01-21T02:41:19.548Z,99.40
2023-01-21T02:42:19.538Z,99.40
2023-01-21T02:43:20.098Z,99.36
2023-01-21T02:44:20.517Z,99.04
2023-01-21T02:45:19.506Z,98.88
2023-01-21T02:46:19.521Z,98.77
2023-01-21T02:47:19.452Z,98.56
2023-01-21T02:48:19.440Z,98.35
2023-01-21T02:49:19.445Z,98.35
2023-01-21T02:50:19.983Z,98.41
2023-01-21T02:51:19.491Z,98.30
2023-01-21T02:52:20.043Z,97.88
2023-01-21T02:53:19.431Z,97.78
2023-01-21T02:54:19.377Z,97.67
2023-01-21T02:55:19.396Z,97.51
2023-01-21T02:56:19.353Z,97.51
2023-01-21T02:57:19.354Z,97.61
2023-01-21T02:58:19.337Z,97.72
2023-01-21T02:59:19.356Z,98.14
2023-01-21T03:00:20.024Z,98.46
2023-01-21T03:01:19.331Z,98.66
2023-01-21T03:02:19.313Z,98.66
2023-01-21T03:03:19.933Z,98.66
2023-01-21T03:04:19.270Z,98.77
2023-01-21T03:05:19.290Z,98.66
2023-01-21T03:06:19.263Z,98.46
2023-01-21T03:07:20.097Z,98.46
2023-01-21T03:08:21.124Z,98.35
2023-01-21T03:09:21.534Z,98.35
2023-01-21T03:10:40.518Z,98.35
2023-01-21T03:11:19.231Z,98.24
2023-01-21T03:12:19.203Z,98.08
2023-01-21T03:13:19.200Z,98.08
2023-01-21T03:14:19.171Z,97.87
2023-01-21T03:15:19.264Z,97.91
2023-01-21T03:16:19.246Z,98.23
2023-01-21T03:17:19.142Z,98.33
2023-01-21T03:18:19.128Z,98.65
2023-01-21T03:19:19.128Z,98.75
2023-01-21T03:20:19.102Z,98.75
2023-01-21T03:21:19.098Z,98.86
2023-01-21T03:22:19.100Z,98.97
2023-01-21T03:23:19.104Z,98.91
2023-01-21T03:24:19.091Z,98.91
2023-01-21T03:25:19.620Z,98.91
2023-01-21T03:26:21.561Z,99.01
2023-01-21T03:27:22.793Z,99.22
2023-01-21T03:28:20.068Z,99.33
2023-01-21T03:29:19.043Z,99.43
2023-01-21T03:30:26.076Z,99.54
2023-01-21T03:31:20.023Z,99.75
2023-01-21T03:32:18.972Z,99.99
2023-01-21T03:33:18.979Z,99.99
2023-01-21T03:34:18.971Z,99.99
2023-01-21T03:35:18.957Z,99.99
2023-01-21T03:36:19.544Z,99.99
2023-01-21T03:37:18.929Z,99.99
2023-01-21T03:38:18.931Z,99.99
2023-01-21T03:39:19.112Z,99.99
2023-01-21T03:40:19.831Z,99.99
2023-01-21T03:41:18.915Z,99.99
2023-01-21T03:42:18.874Z,99.99
2023-01-21T03:43:20.624Z,99.99
2023-01-21T03:44:20.295Z,99.99
2023-01-21T03:45:18.844Z,99.99
2023-01-21T03:46:18.912Z,99.99
2023-01-21T03:47:18.838Z,99.99
2023-01-21T03:48:18.833Z,99.99
2023-01-21T03:49:18.808Z,99.99
2023-01-21T03:50:25.971Z,99.99
2023-01-21T03:51:18.850Z,99.99
2023-01-21T03:52:18.763Z,99.99
2023-01-21T03:53:18.763Z,99.99
2023-01-21T03:54:18.991Z,99.99
2023-01-21T03:55:19.591Z,99.99
2023-01-21T03:56:18.718Z,99.99
2023-01-21T03:57:18.745Z,99.99
2023-01-21T03:58:19.513Z,99.99
2023-01-21T03:59:19.571Z,99.99
2023-01-21T04:00:20.161Z,99.99
2023-01-21T04:01:21.656Z,99.99
2023-01-21T04:02:19.660Z,99.99
2023-01-21T04:03:18.661Z,99.99
2023-01-21T04:04:18.640Z,99.99
2023-01-21T04:05:18.654Z,99.99
2023-01-21T04:06:18.641Z,99.99
2023-01-21T04:07:18.608Z,99.99
2023-01-21T04:08:18.590Z,99.99
2023-01-21T04:09:18.595Z,99.99
2023-01-21T04:10:25.704Z,99.99
2023-01-21T04:11:18.577Z,99.99
2023-01-21T04:12:18.577Z,99.99
2023-01-21T04:13:18.564Z,99.99
2023-01-21T04:14:18.550Z,99.99
2023-01-21T04:15:18.571Z,99.99
2023-01-21T04:16:19.160Z,99.99
2023-01-21T04:17:18.586Z,99.99
2023-01-21T04:18:19.592Z,99.99
2023-01-21T04:19:20.054Z,99.99
2023-01-21T04:20:20.137Z,99.99
2023-01-21T04:21:18.464Z,99.99
2023-01-21T04:22:19.115Z,99.99
2023-01-21T04:23:19.131Z,99.99
2023-01-21T04:24:18.462Z,99.99
2023-01-21T04:25:19.115Z,99.99
2023-01-21T04:26:19.133Z,99.99
2023-01-21T04:27:19.117Z,99.99
2023-01-21T04:28:19.122Z,99.99
2023-01-21T04:29:20.944Z,99.99
2023-01-21T04:30:25.723Z,99.99
2023-01-21T04:31:19.908Z,99.99
2023-01-21T04:32:19.777Z,99.99
2023-01-21T04:33:19.740Z,99.99
2023-01-21T04:34:19.226Z,99.99
2023-01-21T04:35:18.342Z,99.99
2023-01-21T04:36:19.167Z,99.99
2023-01-21T04:37:18.973Z,99.99
2023-01-21T04:38:21.156Z,99.99
2023-01-21T04:39:19.126Z,99.99
2023-01-21T04:40:20.041Z,99.99
2023-01-21T04:41:19.125Z,99.99
2023-01-21T04:42:19.151Z,99.99
2023-01-21T04:43:19.142Z,99.99
2023-01-21T04:44:19.134Z,99.99
2023-01-21T04:45:19.141Z,99.99
2023-01-21T04:46:19.147Z,99.99
2023-01-21T04:47:18.205Z,99.99
2023-01-21T04:48:19.224Z,99.99
2023-01-21T04:49:19.246Z,99.99
2023-01-21T04:50:18.411Z,99.99
2023-01-21T04:51:19.645Z,99.99
2023-01-21T04:52:18.158Z,99.99
2023-01-21T04:53:18.788Z,99.99
2023-01-21T04:54:19.055Z,99.99
2023-01-21T04:55:20.446Z,99.99
2023-01-21T04:56:21.160Z,99.99
2023-01-21T04:57:18.080Z,99.99
2023-01-21T04:58:19.473Z,99.99
2023-01-21T04:59:19.287Z,99.99
2023-01-21T05:00:25.272Z,99.99
2023-01-21T05:01:18.149Z,99.99
2023-01-21T05:02:18.752Z,99.99
2023-01-21T05:03:18.563Z,99.99
2023-01-21T05:04:18.680Z,99.99
2023-01-21T05:05:18.682Z,99.99
2023-01-21T05:06:18.708Z,99.99
2023-01-21T05:07:21.477Z,99.99
2023-01-21T05:08:20.491Z,99.99
2023-01-21T05:09:18.582Z,99.99
2023-01-21T05:10:19.501Z,99.99
2023-01-21T05:11:19.586Z,99.99
2023-01-21T05:12:19.182Z,99.99
2023-01-21T05:13:18.680Z,99.99
2023-01-21T05:14:21.571Z,99.99
2023-01-21T05:15:21.195Z,99.99
2023-01-21T05:16:18.700Z,99.99
2023-01-21T05:17:18.674Z,99.99
2023-01-21T05:18:18.665Z,99.99
2023-01-21T05:19:19.751Z,99.99
2023-01-21T05:20:18.802Z,99.99
2023-01-21T05:21:55.196Z,99.99
2023-01-21T05:22:18.690Z,99.99
2023-01-21T05:23:18.656Z,99.99
2023-01-21T05:24:18.662Z,99.99
2023-01-21T05:25:19.770Z,99.99
2023-01-21T05:26:17.797Z,99.99
2023-01-21T05:27:20.674Z,99.99
2023-01-21T05:28:18.777Z,99.99
2023-01-21T05:29:17.763Z,99.99
2023-01-21T05:30:18.805Z,99.99
2023-01-21T05:31:17.922Z,99.99
2023-01-21T05:32:19.675Z,99.99
2023-01-21T05:33:18.262Z,99.99
2023-01-21T05:34:17.702Z,99.99
2023-01-21T05:35:19.059Z,99.99
2023-01-21T05:36:18.593Z,99.99
2023-01-21T05:37:17.692Z,99.99
2023-01-21T05:38:17.691Z,99.99
2023-01-21T05:39:19.098Z,99.99
2023-01-21T05:40:25.218Z,99.99
2023-01-21T05:41:18.471Z,99.99
2023-01-21T05:42:18.407Z,99.99
2023-01-21T05:43:17.628Z,99.99
2023-01-21T05:44:18.584Z,99.99
2023-01-21T05:45:17.641Z,99.99
2023-01-21T05:46:17.595Z,99.99
2023-01-21T05:47:17.616Z,99.99
2023-01-21T05:48:17.547Z,99.99
2023-01-21T05:49:17.576Z,99.99
2023-01-21T05:50:17.866Z,99.99
2023-01-21T05:51:17.579Z,99.99
2023-01-21T05:52:18.217Z,99.99
2023-01-21T05:53:17.515Z,99.99
2023-01-21T05:54:18.495Z,99.99
2023-01-21T05:55:17.512Z,99.99
2023-01-21T05:56:18.289Z,99.99
2023-01-21T05:57:17.477Z,99.99
2023-01-21T05:58:18.061Z,99.99
2023-01-21T05:59:19.133Z,99.99
2023-01-21T06:00:18.607Z,99.99
2023-01-21T06:01:17.443Z,99.99
2023-01-21T06:02:17.482Z,99.99
2023-01-21T06:03:17.433Z,99.99
2023-01-21T06:04:17.419Z,99.99
2023-01-21T06:05:17.412Z,99.99
2023-01-21T06:06:17.360Z,99.99
2023-01-21T06:07:17.362Z,99.99
2023-01-21T06:08:17.338Z,99.99
2023-01-21T06:09:17.353Z,99.99
2023-01-21T06:10:19.000Z,99.99
2023-01-21T06:11:17.321Z,99.99
2023-01-21T06:12:17.327Z,99.99
2023-01-21T06:13:17.507Z,99.99
2023-01-21T06:14:17.307Z,99.99
2023-01-21T06:15:17.262Z,99.99
2023-01-21T06:16:17.791Z,99.99
2023-01-21T06:17:17.249Z,99.99
2023-01-21T06:18:17.243Z,99.99
2023-01-21T06:19:17.228Z,99.99
2023-01-21T06:20:18.526Z,99.99
2023-01-21T06:21:17.313Z,99.99
2023-01-21T06:22:17.199Z,99.99
2023-01-21T06:23:17.197Z,99.99
2023-01-21T06:24:17.177Z,99.99
2023-01-21T06:25:17.158Z,99.99
2023-01-21T06:26:17.163Z,99.99
2023-01-21T06:27:17.727Z,99.99
2023-01-21T06:28:18.231Z,99.99
2023-01-21T06:29:17.782Z,99.99
2023-01-21T06:30:17.427Z,99.99
2023-01-21T06:31:17.183Z,99.99
2023-01-21T06:32:17.100Z,99.99
2023-01-21T06:33:17.796Z,99.99
2023-01-21T06:34:17.090Z,99.99
2023-01-21T06:35:17.055Z,99.99
2023-01-21T06:36:17.075Z,99.99
2023-01-21T06:37:17.063Z,99.99
2023-01-21T06:38:24.227Z,99.99
2023-01-21T06:39:17.046Z,99.99
2023-01-21T06:40:18.173Z,99.99
2023-01-21T06:41:17.006Z,99.99
2023-01-21T06:42:16.991Z,99.99
2023-01-21T06:43:16.971Z,99.99
2023-01-21T06:44:16.991Z,99.99
2023-01-21T06:45:16.987Z,99.99
2023-01-21T06:46:18.556Z,99.99
2023-01-21T06:47:16.954Z,99.99
2023-01-21T06:48:16.949Z,99.99
2023-01-21T06:49:16.925Z,99.99
2023-01-21T06:50:24.288Z,99.99
2023-01-21T06:51:17.000Z,99.99
2023-01-21T06:52:16.974Z,99.99
2023-01-21T06:53:16.864Z,99.99
2023-01-21T06:54:16.890Z,99.99
2023-01-21T06:55:16.847Z,99.99
2023-01-21T06:56:16.841Z,99.99
2023-01-21T06:57:16.819Z,99.99
2023-01-21T06:58:16.831Z,99.99
2023-01-21T06:59:17.007Z,99.99
2023-01-21T07:00:17.183Z,99.99
2023-01-21T07:01:16.830Z,99.99
2023-01-21T07:02:20.617Z,99.99
2023-01-21T07:03:17.864Z,99.99
2023-01-21T07:04:16.782Z,99.99
2023-01-21T07:05:17.059Z,99.99
2023-01-21T07:06:16.763Z,99.99
2023-01-21T07:07:16.741Z,99.99
2023-01-21T07:08:16.728Z,99.99
2023-01-21T07:09:16.703Z,99.99
2023-01-21T07:10:24.831Z,99.99
2023-01-21T07:11:16.671Z,99.99
2023-01-21T07:12:16.685Z,99.99
2023-01-21T07:13:16.676Z,99.99
2023-01-21T07:14:16.654Z,99.99
2023-01-21T07:15:16.907Z,99.99
2023-01-21T07:16:16.700Z,99.99
2023-01-21T07:17:16.650Z,99.99
2023-01-21T07:18:16.625Z,99.99
2023-01-21T07:19:16.691Z,99.99
2023-01-21T07:20:16.868Z,99.99
2023-01-21T07:21:16.603Z,99.99
2023-01-21T07:22:16.807Z,99.99
2023-01-21T07:23:16.660Z,99.99
2023-01-21T07:24:16.574Z,99.99
2023-01-21T07:25:16.860Z,99.99
2023-01-21T07:26:16.531Z,99.99
2023-01-21T07:27:16.542Z,99.99
2023-01-21T07:28:17.372Z,99.99
2023-01-21T07:29:16.491Z,99.99
2023-01-21T07:30:23.020Z,99.99
2023-01-21T07:31:16.585Z,99.99
2023-01-21T07:32:16.465Z,99.99
2023-01-21T07:33:16.466Z,99.99
2023-01-21T07:34:16.492Z,99.99
2023-01-21T07:35:16.724Z,99.99
2023-01-21T07:36:16.449Z,99.99
2023-01-21T07:37:16.402Z,99.99
2023-01-21T07:38:16.400Z,99.99
2023-01-21T07:39:16.851Z,99.99
2023-01-21T07:40:17.346Z,99.99
2023-01-21T07:41:16.367Z,99.99
2023-01-21T07:42:17.334Z,99.99
2023-01-21T07:43:16.363Z,99.99
2023-01-21T07:44:16.343Z,99.99
2023-01-21T07:45:16.715Z,99.99
2023-01-21T07:46:16.362Z,99.99
2023-01-21T07:47:16.300Z,99.99
2023-01-21T07:48:16.295Z,99.99
2023-01-21T07:49:16.300Z,99.99
2023-01-21T07:50:16.281Z,99.99
2023-01-21T07:51:16.312Z,99.99
2023-01-21T07:52:16.259Z,99.99
2023-01-21T07:53:16.246Z,99.99
2023-01-21T07:54:16.302Z,99.99
2023-01-21T07:55:17.222Z,99.99
2023-01-21T07:56:16.904Z,99.99
2023-01-21T07:57:16.813Z,99.99
2023-01-21T07:58:17.337Z,99.99
2023-01-21T07:59:16.174Z,99.99
2023-01-21T08:00:24.379Z,99.99
2023-01-21T08:01:16.199Z,99.99
2023-01-21T08:02:16.312Z,99.99
2023-01-21T08:03:16.133Z,99.99
2023-01-21T08:04:16.947Z,99.99
2023-01-21T08:05:16.473Z,99.99
2023-01-21T08:06:16.108Z,99.99
2023-01-21T08:07:16.094Z,99.99
2023-01-21T08:08:16.091Z,99.99
2023-01-21T08:09:16.086Z,99.99
2023-01-21T08:10:16.268Z,99.99
2023-01-21T08:11:16.058Z,99.31
2023-01-21T08:12:16.058Z,98.64
2023-01-21T08:13:16.923Z,97.54
2023-01-21T08:14:16.020Z,96.07
2023-01-21T08:15:16.402Z,95.19
2023-01-21T08:16:17.512Z,93.82
2023-01-21T08:17:16.226Z,92.73
2023-01-21T08:18:16.008Z,92.83
2023-01-21T08:19:16.931Z,92.63
2023-01-21T08:20:23.526Z,92.06
2023-01-21T08:21:15.971Z,91.85
2023-01-21T08:22:15.957Z,91.22
2023-01-21T08:23:15.933Z,89.75
2023-01-21T08:24:16.238Z,87.55
2023-01-21T08:25:16.169Z,86.68
2023-01-21T08:26:15.916Z,87.09
2023-01-21T08:27:15.919Z,87.58
2023-01-21T08:28:16.700Z,86.74
2023-01-21T08:29:16.794Z,86.22
2023-01-21T08:30:16.075Z,87.26
2023-01-21T08:31:16.538Z,85.80
2023-01-21T08:32:16.099Z,86.32
2023-01-21T08:33:16.824Z,87.68
2023-01-21T08:34:17.390Z,87.51
2023-01-21T08:35:16.777Z,86.99
2023-01-21T08:36:15.815Z,87.05
2023-01-21T08:37:15.794Z,87.79
2023-01-21T08:38:15.768Z,88.48
2023-01-21T08:39:16.460Z,87.96
2023-01-21T08:40:22.303Z,87.23
2023-01-21T08:41:15.770Z,87.74
2023-01-21T08:42:16.494Z,86.53
2023-01-21T08:43:15.744Z,86.63
2023-01-21T08:44:16.398Z,87.41
2023-01-21T08:45:16.937Z,88.39
2023-01-21T08:46:16.485Z,89.27
2023-01-21T08:47:16.501Z,89.79
2023-01-21T08:48:15.980Z,89.79
2023-01-21T08:49:16.502Z,89.97
2023-01-21T08:50:15.851Z,90.20
2023-01-21T08:51:16.570Z,88.48
2023-01-21T08:52:18.432Z,86.55
2023-01-21T08:53:16.504Z,85.51
2023-01-21T08:54:15.835Z,85.26
2023-01-21T08:55:16.731Z,86.20
2023-01-21T08:56:16.310Z,87.31
2023-01-21T08:57:16.501Z,86.13
2023-01-21T08:58:15.797Z,86.02
2023-01-21T08:59:16.431Z,87.13
2023-01-21T09:00:22.602Z,85.50
2023-01-21T09:01:16.445Z,83.40
2023-01-21T09:02:16.581Z,83.30
2023-01-21T09:03:16.014Z,83.58
2023-01-21T09:04:16.023Z,85.14
2023-01-21T09:05:16.375Z,86.61
2023-01-21T09:06:16.023Z,87.45
2023-01-21T09:07:16.952Z,87.40
2023-01-21T09:08:16.025Z,87.40
2023-01-21T09:09:16.445Z,87.13
2023-01-21T09:10:16.631Z,87.13
2023-01-21T09:11:15.956Z,86.61
2023-01-21T09:12:16.011Z,86.92
2023-01-21T09:13:16.016Z,87.09
2023-01-21T09:14:16.011Z,85.06
2023-01-21T09:15:16.381Z,83.47
2023-01-21T09:16:15.970Z,82.55
2023-01-21T09:17:16.025Z,80.02
2023-01-21T09:18:16.506Z,78.73
2023-01-21T09:19:16.452Z,80.40
2023-01-21T09:20:15.985Z,82.06
2023-01-21T09:21:15.984Z,81.09
2023-01-21T09:22:15.951Z,80.91
2023-01-21T09:23:16.718Z,81.53
2023-01-21T09:24:15.934Z,80.46
2023-01-21T09:25:17.034Z,77.89
2023-01-21T09:26:15.303Z,74.05
2023-01-21T09:28:06.221Z,74.43
2023-01-21T09:29:06.046Z,78.00
2023-01-21T09:30:05.687Z,79.14
2023-01-21T09:31:06.548Z,78.93
2023-01-21T09:32:06.042Z,79.66
2023-01-21T09:33:05.975Z,78.17
2023-01-21T09:34:06.852Z,76.68
2023-01-21T09:35:05.948Z,78.13
2023-01-21T09:36:06.029Z,77.09
2023-01-21T09:37:06.044Z,77.58
2023-01-21T09:38:05.958Z,78.27
2023-01-21T09:39:06.049Z,75.15
2023-01-21T09:40:06.055Z,74.71
2023-01-21T09:41:05.312Z,74.46
2023-01-21T09:42:05.860Z,74.40
2023-01-21T09:43:11.956Z,74.05
2023-01-21T09:44:06.976Z,73.01
2023-01-21T09:45:05.981Z,73.71
2023-01-21T09:46:06.108Z,69.84
2023-01-21T09:47:06.141Z,73.02
2023-01-21T09:48:05.448Z,71.50
2023-01-21T09:49:05.430Z,69.33
2023-01-21T09:50:06.060Z,67.21
2023-01-21T09:51:06.102Z,66.24
2023-01-21T09:52:06.042Z,67.21
2023-01-21T09:53:06.496Z,63.81
2023-01-21T09:54:05.976Z,62.65
2023-01-21T09:55:05.976Z,64.27
2023-01-21T09:56:05.817Z,62.31
2023-01-21T09:57:06.552Z,64.06
2023-01-21T09:58:05.986Z,62.82
2023-01-21T09:59:05.194Z,63.37
